Time;durP1;ratioP1;P1;durP2;ratioP2;P2;SDS_P1;SDS_P2;PMS_P1;PMS_P2;Temp;Humidity;BMP_temperature;BMP_pressure;BME280_temperature;BME280_humidity;BME280_pressure;Samples;Min_cycle;Max_cycle;Signal;HPM_P1;HPM_P2
2022/10/14 00:01:49;;;;;;;21.98;13.15;;;12.60;99.90;;;;;;5087553;28;20055;-73
2022/10/14 00:04:14;;;;;;;23.13;12.55;;;12.60;99.90;;;;;;5060993;28;20054;-73
2022/10/14 00:06:40;;;;;;;19.60;11.63;;;12.60;99.90;;;;;;5041993;28;20048;-72
2022/10/14 00:09:07;;;;;;;24.08;12.45;;;12.60;99.90;;;;;;5084577;28;20041;-73
2022/10/14 00:11:33;;;;;;;20.83;12.73;;;12.70;99.90;;;;;;5068296;28;20041;-73
2022/10/14 00:14:10;;;;;;;20.55;12.48;;;12.70;99.90;;;;;;5058830;28;20044;-73
2022/10/14 00:16:37;;;;;;;22.17;12.85;;;12.70;99.90;;;;;;5050264;28;20564;-73
2022/10/14 00:19:03;;;;;;;23.45;13.05;;;12.70;99.90;;;;;;5042623;28;20049;-72
2022/10/14 00:21:29;;;;;;;20.50;11.63;;;12.70;99.90;;;;;;5069060;28;20044;-72
2022/10/14 00:23:56;;;;;;;24.30;12.70;;;12.70;99.90;;;;;;5058466;28;20178;-73
2022/10/14 00:26:29;;;;;;;20.27;12.68;;;12.70;99.90;;;;;;5047558;28;20048;-73
2022/10/14 00:28:55;;;;;;;18.88;11.30;;;12.70;99.90;;;;;;5072911;28;20040;-72
2022/10/14 00:31:21;;;;;;;24.02;12.75;;;12.70;99.90;;;;;;5075684;28;20059;-73
2022/10/14 00:33:47;;;;;;;21.73;13.05;;;12.70;99.90;;;;;;5058384;28;20369;-73
2022/10/14 00:36:14;;;;;;;22.85;13.52;;;12.70;99.90;;;;;;5075978;28;20044;-73
2022/10/14 00:38:40;;;;;;;22.15;14.52;;;12.70;99.90;;;;;;5055008;28;20048;-73
2022/10/14 00:41:05;;;;;;;26.15;13.43;;;12.70;99.90;;;;;;5088413;28;20052;-73
2022/10/14 00:43:51;;;;;;;19.55;13.63;;;12.70;99.90;;;;;;5055431;28;20446;-72
2022/10/14 00:46:16;;;;;;;22.20;13.00;;;12.80;99.90;;;;;;5057301;28;20055;-72
2022/10/14 00:48:43;;;;;;;22.92;13.52;;;12.80;99.90;;;;;;5041498;28;20047;-73
2022/10/14 00:51:09;;;;;;;24.17;13.90;;;12.70;99.90;;;;;;5071672;28;20044;-73
2022/10/14 00:53:35;;;;;;;22.52;12.70;;;12.80;99.90;;;;;;5038875;28;20495;-73
2022/10/14 00:56:01;;;;;;;20.98;12.60;;;12.80;99.90;;;;;;5054067;28;20044;-72
2022/10/14 00:58:27;;;;;;;21.33;13.02;;;12.80;99.90;;;;;;5072005;28;20044;-72
2022/10/14 01:00:53;;;;;;;20.40;11.23;;;12.80;99.90;;;;;;5089272;28;20077;-72
2022/10/14 01:03:21;;;;;;;23.05;13.25;;;12.80;99.90;;;;;;5071328;28;20044;-73
2022/10/14 01:06:25;;;;;;;20.63;12.95;;;12.80;99.90;;;;;;5037740;28;20134;-72
2022/10/14 01:09:08;;;;;;;22.42;14.10;;;12.80;99.90;;;;;;5056817;28;20109;-73
2022/10/14 01:11:40;;;;;;;20.95;13.35;;;12.80;99.90;;;;;;5050452;28;20102;-68
2022/10/14 01:14:31;;;;;;;25.50;14.30;;;12.80;99.90;;;;;;5073758;28;20098;-68
2022/10/14 01:17:00;;;;;;;26.08;14.20;;;12.80;99.90;;;;;;5071580;28;20443;-68
2022/10/14 01:19:38;;;;;;;23.00;13.77;;;12.80;99.90;;;;;;5072853;28;20079;-68
2022/10/14 01:22:28;;;;;;;25.33;14.15;;;12.80;99.90;;;;;;5071746;28;20051;-67
2022/10/14 01:25:07;;;;;;;22.60;14.23;;;12.80;99.90;;;;;;5085613;28;20068;-67
2022/10/14 01:27:43;;;;;;;25.88;14.95;;;12.80;99.90;;;;;;5079112;28;20055;-68
2022/10/14 01:30:22;;;;;;;21.88;14.13;;;12.80;99.90;;;;;;5074931;28;20075;-68
2022/10/14 01:32:54;;;;;;;23.23;14.35;;;12.80;99.90;;;;;;5072329;28;20040;-68
2022/10/14 01:35:38;;;;;;;28.40;14.40;;;12.80;99.90;;;;;;5088076;28;20044;-68
2022/10/14 01:38:35;;;;;;;23.42;14.73;;;12.80;99.90;;;;;;5066116;28;20056;-67
2022/10/14 01:41:10;;;;;;;24.50;15.63;;;12.80;99.90;;;;;;5069452;28;20044;-68
2022/10/14 01:43:38;;;;;;;21.42;14.68;;;12.80;99.90;;;;;;5069419;28;20068;-69
2022/10/14 01:46:05;;;;;;;21.60;14.25;;;12.80;99.90;;;;;;5071499;28;20048;-68
2022/10/14 01:48:32;;;;;;;25.92;13.75;;;12.70;99.90;;;;;;5056774;28;20149;-68
2022/10/14 01:51:00;;;;;;;27.02;14.75;;;12.60;99.90;;;;;;5056835;28;20439;-68
2022/10/14 01:53:41;;;;;;;24.90;14.55;;;12.60;99.90;;;;;;5073376;28;20488;-68
2022/10/14 01:56:06;;;;;;;25.27;14.55;;;12.60;99.90;;;;;;5084704;28;20048;-68
2022/10/14 01:58:32;;;;;;;29.17;15.02;;;12.60;99.90;;;;;;5032164;28;20041;-68
2022/10/14 02:00:58;;;;;;;23.45;13.27;;;12.50;99.90;;;;;;5056630;28;20073;-68
2022/10/14 02:03:39;;;;;;;23.40;14.90;;;12.50;99.90;;;;;;5059117;28;20074;-68
2022/10/14 02:06:29;;;;;;;25.50;14.27;;;12.60;99.90;;;;;;5057507;28;20052;-68
2022/10/14 02:09:17;;;;;;;21.80;14.05;;;12.60;99.90;;;;;;5086128;28;20037;-68
2022/10/14 02:11:52;;;;;;;;;;;12.60;99.90;;;;;;5070752;28;20463;-68
2022/10/14 02:14:29;;;;;;;26.00;14.63;;;12.60;99.90;;;;;;5070261;28;19947;-68
2022/10/14 02:17:01;;;;;;;28.75;14.60;;;12.60;99.90;;;;;;5070578;28;20110;-69
2022/10/14 02:19:54;;;;;;;22.98;15.18;;;12.50;99.90;;;;;;5069542;28;20052;-69
2022/10/14 02:22:23;;;;;;;25.02;14.93;;;12.60;99.90;;;;;;5070040;28;20713;-68
2022/10/14 02:24:53;;;;;;;24.75;14.77;;;12.60;99.90;;;;;;5067225;28;20044;-68
2022/10/14 02:27:19;;;;;;;22.10;14.68;;;12.60;99.90;;;;;;5073482;28;20573;-68
2022/10/14 02:29:45;;;;;;;24.40;14.55;;;12.60;99.90;;;;;;5054438;28;20044;-67
2022/10/14 02:32:13;;;;;;;25.17;15.68;;;12.60;99.90;;;;;;5059642;28;20512;-67
2022/10/14 02:34:39;;;;;;;27.98;16.08;;;12.60;99.90;;;;;;5066284;28;20044;-67
2022/10/14 02:37:05;;;;;;;25.73;16.08;;;12.60;99.90;;;;;;5073113;28;20374;-68
2022/10/14 02:39:43;;;;;;;24.38;15.10;;;12.70;99.90;;;;;;5036735;28;20079;-68
2022/10/14 02:42:08;;;;;;;28.65;16.77;;;12.70;99.90;;;;;;5049948;28;20070;-67
2022/10/14 02:44:34;;;;;;;24.77;15.50;;;12.60;99.90;;;;;;5042876;28;20768;-68
2022/10/14 02:47:01;;;;;;;27.95;16.10;;;12.70;99.90;;;;;;5078599;28;20076;-67
2022/10/14 02:49:26;;;;;;;24.60;16.63;;;12.70;99.90;;;;;;5092363;28;20071;-68
2022/10/14 02:51:52;;;;;;;24.83;15.95;;;12.70;99.90;;;;;;5055850;28;20075;-68
2022/10/14 02:54:18;;;;;;;27.58;16.42;;;12.70;99.90;;;;;;5068629;28;20546;-68
2022/10/14 02:56:45;;;;;;;34.03;18.88;;;12.70;99.90;;;;;;5045348;28;20056;-68
2022/10/14 02:59:10;;;;;;;25.08;16.10;;;12.70;99.90;;;;;;5073141;28;20075;-68
2022/10/14 03:01:37;;;;;;;29.80;18.00;;;12.70;99.90;;;;;;5089163;28;20832;-68
2022/10/14 03:04:02;;;;;;;28.02;17.73;;;12.70;99.90;;;;;;5052515;28;20139;-68
2022/10/14 03:06:29;;;;;;;31.33;17.90;;;12.70;99.90;;;;;;5053061;28;20052;-68
2022/10/14 03:08:54;;;;;;;32.97;17.17;;;12.70;99.90;;;;;;5054011;28;20507;-67
2022/10/14 03:11:20;;;;;;;25.00;17.67;;;12.70;99.90;;;;;;5068314;28;20769;-68
2022/10/14 03:13:46;;;;;;;28.85;16.85;;;12.70;99.90;;;;;;5077150;28;20044;-68
2022/10/14 03:16:12;;;;;;;30.20;17.90;;;12.80;99.90;;;;;;5072259;28;20458;-68
2022/10/14 03:18:37;;;;;;;28.25;17.60;;;12.80;99.90;;;;;;5051401;28;20048;-68
2022/10/14 03:21:04;;;;;;;27.52;17.70;;;12.80;99.90;;;;;;5032870;28;20058;-68
2022/10/14 03:23:30;;;;;;;30.17;16.50;;;12.80;99.90;;;;;;5023934;28;20055;-68
2022/10/14 03:25:56;;;;;;;25.33;16.42;;;12.80;99.90;;;;;;5062512;28;20373;-69
2022/10/14 03:28:22;;;;;;;31.10;17.52;;;12.80;99.90;;;;;;5074029;28;20051;-68
2022/10/14 03:30:49;;;;;;;28.33;17.00;;;12.80;99.90;;;;;;5069996;28;20044;-68
2022/10/14 03:33:15;;;;;;;27.13;16.98;;;12.80;99.90;;;;;;5055567;28;20109;-68
2022/10/14 03:35:44;;;;;;;27.30;17.42;;;12.80;99.90;;;;;;5071419;28;20602;-68
2022/10/14 03:38:11;;;;;;;23.77;15.65;;;12.80;99.90;;;;;;5055758;28;20097;-68
2022/10/14 03:40:37;;;;;;;23.60;16.05;;;12.80;99.90;;;;;;5062909;28;20041;-67
2022/10/14 03:43:02;;;;;;;26.60;16.08;;;12.80;99.90;;;;;;5088443;28;20105;-68
2022/10/14 03:45:28;;;;;;;21.98;15.00;;;12.80;99.90;;;;;;5059573;28;20097;-68
2022/10/14 03:47:55;;;;;;;26.52;15.95;;;12.70;99.90;;;;;;5051970;28;20097;-68
2022/10/14 03:50:20;;;;;;;23.85;15.88;;;12.70;99.90;;;;;;5048942;28;20040;-68
2022/10/14 03:52:46;;;;;;;24.15;15.68;;;12.70;99.90;;;;;;5054738;28;20067;-68
2022/10/14 03:55:15;;;;;;;25.98;14.98;;;12.70;99.90;;;;;;5054106;28;20524;-69
2022/10/14 03:57:41;;;;;;;24.65;15.70;;;12.70;99.90;;;;;;5051440;28;20051;-69
2022/10/14 04:00:08;;;;;;;29.23;15.80;;;12.70;99.90;;;;;;5055042;28;20048;-68
2022/10/14 04:02:33;;;;;;;22.30;14.07;;;12.70;99.90;;;;;;5054803;28;20046;-67
2022/10/14 04:04:59;;;;;;;21.45;14.95;;;12.70;99.90;;;;;;5069907;28;20347;-68
2022/10/14 04:07:25;;;;;;;21.75;14.68;;;12.70;99.90;;;;;;5052082;28;20127;-68
2022/10/14 04:09:51;;;;;;;24.52;14.35;;;12.70;99.90;;;;;;5051789;28;20438;-68
2022/10/14 04:12:17;;;;;;;24.67;15.23;;;12.80;99.90;;;;;;5064050;28;20055;-68
2022/10/14 04:14:42;;;;;;;27.70;16.08;;;12.80;99.90;;;;;;5084108;28;20146;-68
2022/10/14 04:17:08;;;;;;;33.55;15.05;;;12.80;99.90;;;;;;5055675;28;20044;-68
2022/10/14 04:19:34;;;;;;;23.73;14.13;;;12.80;99.90;;;;;;5070702;28;20067;-68
2022/10/14 04:21:59;;;;;;;23.63;14.27;;;12.80;99.90;;;;;;5070065;28;20491;-68
2022/10/14 04:24:25;;;;;;;23.08;14.43;;;12.80;99.90;;;;;;5058289;28;20044;-68
2022/10/14 04:26:51;;;;;;;22.48;14.60;;;12.80;99.90;;;;;;5080861;28;20135;-68
2022/10/14 04:29:17;;;;;;;24.27;15.18;;;12.80;99.90;;;;;;5028137;28;20041;-68
2022/10/14 04:31:43;;;;;;;22.40;14.77;;;12.80;99.90;;;;;;5067993;28;20044;-68
2022/10/14 04:34:11;;;;;;;26.35;15.88;;;12.80;99.90;;;;;;5056874;28;20085;-69
2022/10/14 04:36:37;;;;;;;20.95;14.55;;;12.80;99.90;;;;;;5055267;28;20127;-68
2022/10/14 04:39:03;;;;;;;24.80;15.60;;;12.80;99.90;;;;;;5055093;28;20048;-67
2022/10/14 04:41:29;;;;;;;24.50;14.93;;;12.80;99.90;;;;;;5054492;28;20101;-68
2022/10/14 04:43:54;;;;;;;25.83;15.43;;;12.80;99.90;;;;;;5054186;28;20052;-67
2022/10/14 04:46:20;;;;;;;20.70;14.55;;;12.80;99.90;;;;;;5054357;28;20051;-68
2022/10/14 04:48:47;;;;;;;25.88;16.25;;;12.80;99.90;;;;;;5054111;28;20054;-68
2022/10/14 04:51:12;;;;;;;25.73;15.95;;;12.80;99.90;;;;;;5053810;28;20048;-72
2022/10/14 04:53:38;;;;;;;25.08;15.05;;;12.80;99.90;;;;;;5072097;28;20047;-72
2022/10/14 04:56:04;;;;;;;24.35;15.40;;;12.80;99.90;;;;;;5048520;28;20106;-72
2022/10/14 04:58:30;;;;;;;23.75;14.95;;;12.90;99.90;;;;;;5046867;28;20051;-72
2022/10/14 05:00:56;;;;;;;24.30;15.52;;;12.80;99.90;;;;;;5076179;28;20052;-72
2022/10/14 05:03:22;;;;;;;24.65;14.63;;;12.80;99.90;;;;;;5076499;28;20052;-72
2022/10/14 05:05:49;;;;;;;27.40;15.35;;;12.90;99.90;;;;;;5054794;28;20086;-72
2022/10/14 05:08:15;;;;;;;22.73;14.67;;;12.80;99.90;;;;;;5068138;28;20037;-72
2022/10/14 05:10:41;;;;;;;23.60;15.48;;;12.90;99.90;;;;;;5065087;28;20070;-72
2022/10/14 05:13:07;;;;;;;26.60;16.13;;;12.90;99.90;;;;;;5072141;28;20040;-72
2022/10/14 05:15:33;;;;;;;23.83;14.48;;;12.90;99.90;;;;;;5056148;28;20044;-72
2022/10/14 05:17:59;;;;;;;30.58;16.15;;;12.90;99.90;;;;;;5088313;28;20047;-72
2022/10/14 05:20:24;;;;;;;23.38;14.93;;;12.90;99.90;;;;;;5059247;28;20071;-71
2022/10/14 05:22:50;;;;;;;26.85;16.33;;;12.90;99.90;;;;;;5071634;28;20052;-72
2022/10/14 05:25:16;;;;;;;27.30;16.67;;;12.90;99.90;;;;;;5072956;28;20045;-72
2022/10/14 05:27:42;;;;;;;23.40;15.75;;;12.90;99.90;;;;;;5071268;28;20544;-71
2022/10/14 05:30:08;;;;;;;22.73;14.50;;;12.90;99.90;;;;;;5054431;28;20141;-71
2022/10/14 05:32:34;;;;;;;23.40;16.23;;;12.90;99.90;;;;;;5064339;28;20048;-71
2022/10/14 05:35:00;;;;;;;22.55;15.10;;;12.90;99.90;;;;;;5055247;28;20405;-71
2022/10/14 05:37:26;;;;;;;26.50;14.68;;;12.90;99.90;;;;;;5059287;28;20496;-71
2022/10/14 05:39:54;;;;;;;22.58;15.07;;;12.90;99.90;;;;;;5054910;28;20048;-71
2022/10/14 05:42:20;;;;;;;24.52;14.55;;;12.90;99.90;;;;;;5071184;28;20040;-71
2022/10/14 05:44:45;;;;;;;28.00;15.23;;;12.90;99.90;;;;;;5100936;28;20048;-71
2022/10/14 05:47:11;;;;;;;33.60;15.00;;;12.90;99.90;;;;;;5069830;28;20059;-71
2022/10/14 05:49:37;;;;;;;28.85;16.92;;;12.90;99.90;;;;;;5088513;28;20071;-71
2022/10/14 05:52:03;;;;;;;26.33;17.40;;;12.80;99.90;;;;;;5070643;28;20083;-71
2022/10/14 05:54:29;;;;;;;26.65;16.58;;;12.70;99.90;;;;;;5068742;28;20064;-72
2022/10/14 05:56:55;;;;;;;26.48;16.80;;;12.80;99.90;;;;;;5068808;28;20104;-72
2022/10/14 05:59:21;;;;;;;24.67;15.65;;;12.70;99.90;;;;;;5054266;28;20083;-71
2022/10/14 06:01:47;;;;;;;26.83;17.10;;;12.70;99.90;;;;;;5069389;28;20101;-71
2022/10/14 06:04:19;;;;;;;29.83;16.75;;;12.70;99.90;;;;;;5070994;28;20044;-71
2022/10/14 06:06:45;;;;;;;28.60;16.73;;;12.70;99.90;;;;;;5071108;28;20048;-72
2022/10/14 06:09:11;;;;;;;27.58;16.38;;;12.80;99.90;;;;;;5056833;28;20055;-71
2022/10/14 06:11:37;;;;;;;26.77;16.38;;;12.80;99.90;;;;;;5060003;28;20040;-71
2022/10/14 06:14:03;;;;;;;29.63;16.63;;;12.80;99.90;;;;;;5087835;28;20113;-72
2022/10/14 06:16:29;;;;;;;23.33;14.77;;;12.80;99.90;;;;;;5057211;28;20453;-73
2022/10/14 06:18:55;;;;;;;24.23;16.45;;;12.90;99.90;;;;;;5074016;28;20055;-72
2022/10/14 06:21:21;;;;;;;27.42;16.10;;;12.90;99.90;;;;;;5073036;28;20047;-72
2022/10/14 06:23:46;;;;;;;26.83;17.17;;;12.90;99.90;;;;;;5091395;28;20112;-71
2022/10/14 06:26:12;;;;;;;26.52;16.63;;;12.90;99.90;;;;;;5088044;28;20052;-72
2022/10/14 06:28:38;;;;;;;24.52;16.45;;;12.90;99.90;;;;;;5080509;28;20040;-71
2022/10/14 06:31:04;;;;;;;31.77;17.50;;;12.90;99.90;;;;;;5071035;28;20117;-71
2022/10/14 06:33:30;;;;;;;26.95;17.27;;;12.90;99.90;;;;;;5082833;28;20044;-72
2022/10/14 06:35:55;;;;;;;25.30;15.95;;;12.90;99.90;;;;;;5082636;28;20055;-71
2022/10/14 06:38:21;;;;;;;25.90;16.58;;;13.00;99.90;;;;;;5039648;28;20044;-71
2022/10/14 06:40:51;;;;;;;25.52;15.85;;;13.00;99.90;;;;;;5069992;28;20129;-72
2022/10/14 06:43:17;;;;;;;29.40;16.88;;;13.00;99.90;;;;;;5068245;28;20548;-72
2022/10/14 06:45:43;;;;;;;26.75;16.75;;;13.00;99.90;;;;;;5086490;28;20440;-71
2022/10/14 06:48:09;;;;;;;26.17;17.80;;;13.10;99.90;;;;;;5075826;28;20044;-71
2022/10/14 06:50:35;;;;;;;26.25;16.17;;;13.10;99.90;;;;;;5069632;28;20101;-71
2022/10/14 06:53:00;;;;;;;25.65;16.60;;;13.10;99.90;;;;;;5076761;28;20083;-72
2022/10/14 06:55:26;;;;;;;26.70;17.33;;;13.10;99.90;;;;;;5067153;28;20040;-72
2022/10/14 06:57:52;;;;;;;24.50;16.15;;;13.10;99.90;;;;;;5076939;28;20815;-72
2022/10/14 07:00:18;;;;;;;28.58;17.52;;;13.10;99.90;;;;;;5069964;28;20051;-71
2022/10/14 07:02:44;;;;;;;24.63;16.02;;;13.10;99.90;;;;;;5082473;28;20457;-71
2022/10/14 07:05:09;;;;;;;25.42;17.20;;;13.20;99.90;;;;;;5071067;28;20062;-72
2022/10/14 07:07:35;;;;;;;26.13;15.93;;;13.20;99.90;;;;;;5068671;28;20124;-71
2022/10/14 07:10:01;;;;;;;29.33;17.20;;;13.20;99.90;;;;;;5030962;28;20041;-74
2022/10/14 07:12:26;;;;;;;24.92;16.38;;;13.30;99.90;;;;;;5072037;28;20595;-72
2022/10/14 07:14:52;;;;;;;24.50;16.55;;;13.30;99.90;;;;;;5067359;28;20093;-72
2022/10/14 07:17:18;;;;;;;23.80;16.75;;;13.30;99.90;;;;;;5072086;28;20462;-72
2022/10/14 07:19:44;;;;;;;25.48;15.95;;;13.40;99.90;;;;;;5081304;28;20075;-72
2022/10/14 07:22:10;;;;;;;30.10;16.45;;;13.40;99.90;;;;;;5050826;28;20083;-71
2022/10/14 07:24:37;;;;;;;22.77;16.05;;;13.40;99.90;;;;;;5066796;28;20044;-71
2022/10/14 07:27:03;;;;;;;25.10;16.65;;;13.50;99.90;;;;;;5072408;28;20098;-71
2022/10/14 07:29:29;;;;;;;26.20;16.80;;;13.50;99.90;;;;;;5070095;28;20052;-75
2022/10/14 07:31:55;;;;;;;28.52;16.10;;;13.50;99.90;;;;;;5036350;28;20059;-72
2022/10/14 07:34:21;;;;;;;24.38;16.02;;;13.50;99.90;;;;;;5068438;28;20468;-72
2022/10/14 07:36:46;;;;;;;24.80;16.20;;;13.50;99.90;;;;;;5055295;28;20186;-71
2022/10/14 07:39:12;;;;;;;26.70;16.35;;;13.60;99.90;;;;;;5071495;28;20130;-71
2022/10/14 07:41:38;;;;;;;23.42;16.85;;;13.60;99.90;;;;;;5068147;28;20501;-72
2022/10/14 07:44:07;;;;;;;30.77;17.05;;;13.60;99.90;;;;;;5070680;28;20473;-71
2022/10/14 07:46:34;;;;;;;30.98;17.02;;;13.60;99.90;;;;;;5056042;28;20482;-72
2022/10/14 07:49:04;;;;;;;23.10;16.65;;;13.60;99.90;;;;;;5056473;28;20075;-71
2022/10/14 07:51:29;;;;;;;27.52;16.38;;;13.60;99.90;;;;;;5070380;28;20040;-73
2022/10/14 07:53:57;;;;;;;26.45;16.27;;;13.60;99.90;;;;;;5047928;28;20114;-72
2022/10/14 07:56:23;;;;;;;25.52;16.58;;;13.60;99.90;;;;;;5053939;28;20413;-73
2022/10/14 07:58:49;;;;;;;26.52;17.25;;;13.60;99.90;;;;;;5052588;28;20044;-72
2022/10/14 08:01:15;;;;;;;28.73;16.30;;;13.70;99.90;;;;;;5025619;28;20661;-72
2022/10/14 08:03:44;;;;;;;25.92;16.20;;;13.70;99.90;;;;;;5018609;28;20052;-72
2022/10/14 08:06:10;;;;;;;25.60;17.10;;;13.70;99.90;;;;;;5019503;28;20052;-72
2022/10/14 08:08:36;;;;;;;29.30;16.70;;;13.70;99.90;;;;;;5060657;28;20062;-71
2022/10/14 08:11:08;;;;;;;26.67;16.75;;;13.80;99.90;;;;;;5055058;28;20044;-72
2022/10/14 08:13:34;;;;;;;25.85;17.45;;;13.70;99.90;;;;;;5056061;28;20047;-72
2022/10/14 08:16:00;;;;;;;24.33;16.15;;;13.80;99.90;;;;;;5073217;28;20052;-72
2022/10/14 08:18:26;;;;;;;25.48;16.27;;;13.80;99.90;;;;;;5080117;28;20040;-71
2022/10/14 08:20:52;;;;;;;22.75;15.85;;;13.80;99.90;;;;;;5051083;28;20044;-72
2022/10/14 08:23:21;;;;;;;29.00;17.50;;;13.80;99.90;;;;;;5056682;28;20117;-72
2022/10/14 08:25:47;;;;;;;24.65;17.02;;;13.90;99.90;;;;;;5051803;28;20052;-72
2022/10/14 08:28:13;;;;;;;25.05;15.70;;;13.80;99.90;;;;;;5035056;28;20511;-71
2022/10/14 08:30:39;;;;;;;24.05;15.70;;;13.80;99.90;;;;;;5035050;28;20052;-72
2022/10/14 08:33:06;;;;;;;24.42;16.52;;;13.90;99.90;;;;;;5051179;28;20033;-72
2022/10/14 08:35:32;;;;;;;22.63;16.38;;;13.90;99.90;;;;;;5051727;28;20101;-71
2022/10/14 08:38:01;;;;;;;25.98;15.93;;;14.00;99.90;;;;;;5086726;28;20040;-72
2022/10/14 08:40:27;;;;;;;;;;;14.00;99.90;;;;;;5085723;28;20047;-72
2022/10/14 08:42:54;;;;;;;21.48;14.40;;;14.10;99.90;;;;;;5034596;28;19919;-71
2022/10/14 08:45:41;;;;;;;24.38;15.95;;;14.20;99.90;;;;;;5051384;28;20099;-71
2022/10/14 08:48:12;;;;;;;21.40;14.80;;;14.30;99.90;;;;;;5082931;28;20540;-70
2022/10/14 08:50:45;;;;;;;24.10;14.63;;;14.40;99.90;;;;;;5055508;28;20079;-71
2022/10/14 08:53:18;;;;;;;24.75;14.85;;;14.50;99.90;;;;;;5053725;28;20483;-70
2022/10/14 08:55:56;;;;;;;20.67;14.23;;;14.60;99.90;;;;;;5072534;28;20051;-71
2022/10/14 08:58:49;;;;;;;20.30;14.23;;;14.70;99.90;;;;;;5056370;28;20044;-71
2022/10/14 09:01:18;;;;;;;24.42;15.43;;;14.70;99.90;;;;;;5042529;28;20324;-72
2022/10/14 09:03:44;;;;;;;22.48;13.52;;;14.70;99.90;;;;;;5071450;28;20041;-71
2022/10/14 09:06:27;;;;;;;17.35;13.10;;;14.90;99.90;;;;;;5071750;28;20097;-72
2022/10/14 09:09:25;;;;;;;17.33;12.63;;;15.00;99.90;;;;;;5055152;28;20055;-71
2022/10/14 09:12:01;;;;;;;15.38;11.75;;;15.00;99.90;;;;;;5068702;28;20036;-71
2022/10/14 09:14:33;;;;;;;20.08;12.88;;;15.00;99.90;;;;;;5038489;28;20052;-71
2022/10/14 09:17:05;;;;;;;16.67;11.68;;;14.90;99.90;;;;;;5071225;28;20053;-71
2022/10/14 09:19:36;;;;;;;16.58;11.48;;;15.10;99.90;;;;;;5071036;28;20135;-71
2022/10/14 09:22:01;;;;;;;17.48;11.55;;;15.10;99.90;;;;;;5058388;28;20056;-71
2022/10/14 09:24:31;;;;;;;19.98;11.35;;;15.20;99.90;;;;;;5071756;28;20045;-71
2022/10/14 09:27:00;;;;;;;18.98;10.95;;;15.20;99.90;;;;;;5077883;28;20151;-72
2022/10/14 09:29:26;;;;;;;12.73;9.20;;;15.20;99.90;;;;;;5070700;28;20079;-71
2022/10/14 09:31:55;;;;;;;11.15;8.10;;;15.20;99.90;;;;;;5081026;28;20105;-71
2022/10/14 09:34:39;;;;;;;10.23;7.50;;;15.10;99.90;;;;;;5057469;28;20044;-71
2022/10/14 09:37:27;;;;;;;12.65;6.60;;;15.10;99.90;;;;;;5058809;28;20109;-70
2022/10/14 09:39:55;;;;;;;10.18;6.75;;;15.20;99.90;;;;;;5057966;28;20718;-71
2022/10/14 09:42:46;;;;;;;8.73;6.95;;;15.20;99.90;;;;;;5075222;28;20048;-71
2022/10/14 09:45:15;;;;;;;10.02;6.20;;;15.20;99.90;;;;;;5074490;28;20502;-70
2022/10/14 09:47:49;;;;;;;10.88;6.72;;;15.30;99.90;;;;;;5049706;28;20055;-71
2022/10/14 09:50:32;;;;;;;11.90;7.03;;;15.30;99.90;;;;;;5074876;28;20123;-70
2022/10/14 09:53:03;;;;;;;13.13;7.63;;;15.30;99.90;;;;;;5036319;28;20033;-71
2022/10/14 09:55:28;;;;;;;15.35;9.27;;;15.30;99.90;;;;;;5064865;28;20131;-70
2022/10/14 09:58:15;;;;;;;11.48;8.23;;;15.40;99.90;;;;;;5069185;28;20131;-70
2022/10/14 10:00:42;;;;;;;11.50;8.20;;;15.40;99.90;;;;;;5065925;28;20044;-70
2022/10/14 10:03:08;;;;;;;8.70;5.90;;;15.50;99.90;;;;;;5053190;28;20048;-71
2022/10/14 10:05:34;;;;;;;9.82;6.65;;;15.60;99.90;;;;;;5020160;28;20413;-70
2022/10/14 10:08:21;;;;;;;7.30;5.18;;;15.70;99.90;;;;;;5070212;28;20044;-70
2022/10/14 10:11:12;;;;;;;6.53;4.45;;;15.80;99.90;;;;;;5070071;28;20481;-70
2022/10/14 10:13:47;;;;;;;4.82;3.90;;;15.70;99.90;;;;;;5044954;28;20048;-72
2022/10/14 10:16:20;;;;;;;6.82;3.90;;;15.80;99.90;;;;;;5030161;28;20044;-71
2022/10/14 10:18:46;;;;;;;4.40;3.25;;;15.80;99.90;;;;;;5053688;28;20499;-70
2022/10/14 10:21:24;;;;;;;4.32;3.17;;;15.70;99.90;;;;;;5038317;28;20418;-71
2022/10/14 10:24:00;;;;;;;4.57;3.15;;;15.70;99.90;;;;;;5038084;28;20682;-70
2022/10/14 10:26:30;;;;;;;4.82;2.70;;;15.80;99.90;;;;;;5073783;28;20054;-74
2022/10/14 10:28:56;;;;;;;3.72;2.88;;;15.80;99.90;;;;;;5070790;28;20375;-71
2022/10/14 10:31:45;;;;;;;6.95;3.05;;;15.80;99.90;;;;;;5037162;28;20044;-70
2022/10/14 10:34:45;;;;;;;3.63;2.80;;;15.70;99.90;;;;;;5069251;28;20062;-71
2022/10/14 10:37:27;;;;;;;3.92;2.70;;;15.70;99.80;;;;;;5071313;28;20052;-72
2022/10/14 10:39:52;;;;;;;5.82;3.13;;;15.70;99.90;;;;;;5057531;28;20051;-71
2022/10/14 10:42:33;;;;;;;4.82;2.65;;;15.70;99.90;;;;;;5089815;28;20054;-72
2022/10/14 10:45:19;;;;;;;4.15;2.60;;;15.70;99.90;;;;;;5072329;28;20121;-72
2022/10/14 10:47:48;;;;;;;4.78;3.35;;;15.60;99.90;;;;;;5068330;28;20487;-71
2022/10/14 10:50:26;;;;;;;4.72;2.80;;;15.80;99.90;;;;;;5069055;28;20113;-72
2022/10/14 10:53:21;;;;;;;5.53;3.10;;;15.90;99.90;;;;;;5071607;28;20044;-72
2022/10/14 10:56:17;;;;;;;4.00;2.58;;;16.30;99.90;;;;;;5080642;28;20051;-72
2022/10/14 10:59:14;;;;;;;5.70;2.85;;;16.50;98.90;;;;;;5088256;28;20044;-72
2022/10/14 11:01:59;;;;;;;4.25;2.83;;;16.40;99.60;;;;;;5075444;28;20131;-72
2022/10/14 11:04:33;;;;;;;5.68;2.80;;;16.20;99.50;;;;;;5073585;28;20174;-71
2022/10/14 11:13:41;;;;;;;3.13;2.20;;;16.00;99.40;;;;;;5078467;28;20087;-71
2022/10/14 11:16:26;;;;;;;4.18;2.75;;;16.10;99.40;;;;;;5074758;28;20540;-72
2022/10/14 11:19:05;;;;;;;4.82;2.90;;;16.20;98.80;;;;;;5086985;28;20473;-77
2022/10/14 11:21:47;;;;;;;5.68;3.10;;;16.20;99.00;;;;;;5071800;28;20040;-72
2022/10/14 11:24:35;;;;;;;4.53;3.08;;;16.20;99.70;;;;;;5089076;28;20050;-72
2022/10/14 11:27:16;;;;;;;4.15;2.75;;;16.30;99.30;;;;;;5089549;28;20093;-71
2022/10/14 11:29:51;;;;;;;6.90;2.95;;;16.10;99.10;;;;;;5068962;28;20044;-72
2022/10/14 11:32:21;;;;;;;5.55;2.60;;;16.10;99.20;;;;;;5069146;28;20048;-71
2022/10/14 11:35:23;;;;;;;5.45;3.00;;;16.20;99.50;;;;;;5054053;28;20209;-73
2022/10/14 11:38:01;;;;;;;4.68;2.65;;;16.30;99.50;;;;;;5072694;28;20076;-71
2022/10/14 11:40:49;;;;;;;4.95;2.40;;;16.50;98.40;;;;;;5087069;28;20126;-72
2022/10/14 11:43:31;;;;;;;5.10;2.80;;;16.70;98.40;;;;;;5069368;28;20056;-73
2022/10/14 11:46:19;;;;;;;4.38;2.65;;;17.20;98.10;;;;;;5036775;28;20051;-73
2022/10/14 11:48:56;;;;;;;6.05;4.25;;;17.40;97.10;;;;;;5041193;28;20044;-72
2022/10/14 11:51:22;;;;;;;4.90;2.10;;;17.10;97.30;;;;;;5055633;28;20043;-72
2022/10/14 11:53:59;;;;;;;4.65;2.22;;;16.80;96.80;;;;;;5084873;28;20052;-72
2022/10/14 11:56:43;;;;;;;3.80;2.25;;;16.70;97.20;;;;;;5071544;28;20048;-71
2022/10/14 11:59:18;;;;;;;4.03;2.70;;;16.60;97.50;;;;;;5077960;28;20112;-72
2022/10/14 12:01:45;;;;;;;8.00;3.08;;;16.70;98.30;;;;;;5078835;28;20133;-72
2022/10/14 12:04:14;;;;;;;4.35;2.42;;;16.60;98.20;;;;;;5054819;28;20048;-72
2022/10/14 12:06:48;;;;;;;4.85;2.75;;;16.60;98.10;;;;;;5069753;28;20048;-72
2022/10/14 12:09:32;;;;;;;5.90;2.90;;;16.50;98.20;;;;;;5084837;28;20103;-72
2022/10/14 12:12:08;;;;;;;4.20;2.30;;;16.60;98.30;;;;;;5051859;28;20040;-71
2022/10/14 12:14:39;;;;;;;3.53;2.35;;;16.60;97.90;;;;;;5067047;28;20551;-73
2022/10/14 12:17:13;;;;;;;4.40;2.20;;;16.50;98.10;;;;;;5055335;28;20052;-72
2022/10/14 12:19:39;;;;;;;3.42;2.28;;;16.40;98.30;;;;;;5072904;28;20429;-72
2022/10/14 12:22:35;;;;;;;5.30;2.30;;;16.40;98.20;;;;;;5039434;28;20071;-71
2022/10/14 12:25:09;;;;;;;6.70;2.40;;;16.40;98.70;;;;;;5079458;28;20052;-72
2022/10/14 12:27:35;;;;;;;4.70;2.13;;;16.60;98.30;;;;;;5092308;28;20044;-72
2022/10/14 12:30:02;;;;;;;4.53;2.00;;;16.70;97.60;;;;;;5076063;28;20167;-72
2022/10/14 12:32:29;;;;;;;3.60;1.85;;;16.90;98.00;;;;;;5054899;28;20047;-72
2022/10/14 12:34:56;;;;;;;2.63;1.52;;;17.30;97.20;;;;;;5048565;28;20378;-72
2022/10/14 12:37:33;;;;;;;2.55;1.50;;;17.40;96.50;;;;;;5044223;28;20679;-73
2022/10/14 12:40:11;;;;;;;5.05;1.85;;;17.80;94.90;;;;;;5080656;28;20230;-73
2022/10/14 12:42:37;;;;;;;;;;;18.10;94.50;;;;;;5082687;28;20055;-72
2022/10/14 12:45:16;;;;;;;3.00;1.55;;;17.90;94.60;;;;;;5075200;28;19970;-72
2022/10/14 12:47:42;;;;;;;4.13;1.70;;;18.10;94.10;;;;;;5073975;28;20052;-72
2022/10/14 12:50:17;;;;;;;3.75;1.50;;;17.80;94.40;;;;;;5074459;28;20044;-72
2022/10/14 12:52:46;;;;;;;3.95;1.27;;;17.70;94.70;;;;;;5087529;28;20040;-72
2022/10/14 12:55:19;;;;;;;3.90;1.17;;;17.50;94.90;;;;;;5070555;28;20044;-71
2022/10/14 12:57:55;;;;;;;3.85;1.40;;;17.40;95.40;;;;;;5055198;28;20063;-71